Time;durP1;ratioP1;P1;durP2;ratioP2;P2;SDS_P1;SDS_P2;PMS_P1;PMS_P2;Temp;Humidity;BMP_temperature;BMP_pressure;BME280_temperature;BME280_humidity;BME280_pressure;Samples;Min_cycle;Max_cycle;Signal;HPM_P1;HPM_P2
2023/06/21 00:00:33;;;;;;;8.70;6.45;;;;;;;17.21;59.56;101042.44;5032338;28;20049;-74
2023/06/21 00:03:00;;;;;;;10.68;7.10;;;;;;;17.05;59.70;101032.03;4984420;28;20321;-73
2023/06/21 00:05:26;;;;;;;11.68;7.53;;;;;;;17.06;59.65;101031.09;5002876;28;20080;-74
2023/06/21 00:07:54;;;;;;;10.10;7.35;;;;;;;17.00;59.67;101039.41;4995977;28;20807;-76
2023/06/21 00:10:23;;;;;;;14.65;9.48;;;;;;;16.90;60.04;101046.22;4981330;28;20041;-76
2023/06/21 00:12:50;;;;;;;14.07;8.43;;;;;;;17.00;59.68;101044.69;5003070;28;20900;-75
2023/06/21 00:15:15;;;;;;;14.77;9.20;;;;;;;16.90;59.73;101048.88;4973333;28;20046;-76
2023/06/21 00:17:40;;;;;;;11.18;8.65;;;;;;;16.89;60.44;101047.16;4973696;28;20042;-76
2023/06/21 00:20:09;;;;;;;12.13;8.57;;;;;;;16.86;60.51;101044.72;4992826;28;20463;-76
2023/06/21 00:22:35;;;;;;;10.68;8.68;;;;;;;16.89;60.61;101055.06;4987491;28;20107;-75
2023/06/21 00:25:01;;;;;;;12.95;9.68;;;;;;;16.86;60.80;101058.75;4991439;28;20076;-76
2023/06/21 00:27:27;;;;;;;12.27;8.65;;;;;;;16.99;60.34;101067.59;4967450;28;20096;-76
2023/06/21 00:29:53;;;;;;;14.38;10.27;;;;;;;17.13;60.25;101066.69;4978116;28;20212;-75
2023/06/21 00:32:20;;;;;;;12.73;10.05;;;;;;;17.19;59.81;101066.31;5008809;28;20037;-75
2023/06/21 00:34:47;;;;;;;11.65;8.20;;;;;;;17.24;59.78;101068.66;4983724;28;20033;-75
2023/06/21 00:37:13;;;;;;;10.23;8.65;;;;;;;17.22;59.74;101079.34;4995925;28;20798;-77
2023/06/21 00:39:39;;;;;;;11.60;8.77;;;;;;;17.26;60.17;101081.75;4992329;28;20037;-75
2023/06/21 00:42:08;;;;;;;13.70;10.20;;;;;;;17.19;59.89;101079.50;4993563;28;20042;-76
2023/06/21 00:44:34;;;;;;;11.77;9.80;;;;;;;17.26;59.59;101084.41;5004009;28;20041;-75
2023/06/21 00:46:59;;;;;;;11.95;10.18;;;;;;;17.06;60.28;101081.25;4988157;28;23159;-76
2023/06/21 00:49:27;;;;;;;11.77;10.13;;;;;;;17.15;59.99;101074.53;4990943;28;20092;-76
2023/06/21 00:51:57;;;;;;;11.68;9.63;;;;;;;17.26;59.94;101072.03;4987721;28;20034;-76
2023/06/21 00:54:27;;;;;;;14.10;9.60;;;;;;;17.22;60.07;101081.09;4985970;28;20033;-75
2023/06/21 00:56:53;;;;;;;10.18;9.00;;;;;;;17.24;59.86;101077.41;5007600;28;22207;-77
2023/06/21 00:59:19;;;;;;;17.98;11.68;;;;;;;17.15;60.06;101075.38;5001175;28;20026;-76
2023/06/21 01:01:45;;;;;;;12.80;11.15;;;;;;;17.20;60.14;101072.44;4975975;28;20535;-76
2023/06/21 01:04:12;;;;;;;14.63;11.77;;;;;;;17.09;60.41;101072.28;4982734;28;20061;-76
2023/06/21 01:06:49;;;;;;;12.40;9.98;;;;;;;17.23;59.74;101067.81;4987070;28;20042;-74
2023/06/21 01:09:25;;;;;;;13.80;10.65;;;;;;;17.13;60.16;101077.25;4993185;28;20760;-75
2023/06/21 01:11:57;;;;;;;14.40;10.98;;;;;;;16.96;60.37;101082.81;4992797;28;20669;-77
2023/06/21 01:14:33;;;;;;;11.02;9.88;;;;;;;17.04;60.13;101083.16;4994741;28;20049;-77
2023/06/21 01:17:03;;;;;;;12.15;10.20;;;;;;;16.84;60.86;101089.69;4995709;28;20522;-75
2023/06/21 01:19:52;;;;;;;13.45;10.57;;;;;;;16.95;60.04;101095.13;4994145;28;20076;-74
2023/06/21 01:22:24;;;;;;;14.90;10.65;;;;;;;16.93;60.13;101094.38;4977948;28;20061;-74
2023/06/21 01:25:21;;;;;;;12.20;8.93;;;;;;;17.00;59.77;101081.63;4989236;28;20481;-76
2023/06/21 01:28:23;;;;;;;12.98;10.10;;;;;;;16.93;59.70;101098.81;4989730;28;20105;-74
2023/06/21 01:30:51;;;;;;;11.93;9.93;;;;;;;16.91;59.70;101108.63;4997796;28;20033;-75
2023/06/21 01:33:18;;;;;;;12.05;9.95;;;;;;;16.89;59.58;101102.59;4980008;28;20842;-75
2023/06/21 01:35:44;;;;;;;12.68;11.30;;;;;;;16.86;59.82;101110.72;4968887;28;20037;-77
2023/06/21 01:38:10;;;;;;;14.85;11.85;;;;;;;16.75;60.08;101109.59;4981637;28;20089;-76
2023/06/21 01:40:37;;;;;;;16.80;11.75;;;;;;;16.65;60.28;101112.91;5006336;28;20029;-76
2023/06/21 01:43:05;;;;;;;14.40;10.82;;;;;;;16.78;60.20;101108.56;4989135;28;20423;-75
2023/06/21 01:45:30;;;;;;;13.70;11.27;;;;;;;16.74;59.96;101101.75;4994090;28;20033;-76
2023/06/21 01:47:56;;;;;;;11.73;10.15;;;;;;;16.74;60.19;101107.88;5005225;28;20037;-75
2023/06/21 01:50:22;;;;;;;15.10;10.23;;;;;;;16.70;59.86;101101.09;4992332;28;20502;-75
2023/06/21 01:52:51;;;;;;;11.88;9.48;;;;;;;16.69;59.85;101102.03;5006755;28;20042;-75
2023/06/21 01:55:18;;;;;;;11.00;8.75;;;;;;;16.65;60.00;101103.19;4976859;28;20084;-74
2023/06/21 01:57:44;;;;;;;13.77;10.50;;;;;;;16.60;59.92;101105.25;4989569;28;20041;-74
2023/06/21 02:00:16;;;;;;;11.23;9.45;;;;;;;16.66;59.76;101104.84;5010875;28;20034;-75
2023/06/21 02:02:49;;;;;;;10.93;9.35;;;;;;;16.67;59.68;101103.94;4969658;28;20046;-75
2023/06/21 02:05:16;;;;;;;12.13;10.15;;;;;;;16.66;59.99;101094.31;5007096;28;20718;-75
2023/06/21 02:07:46;;;;;;;13.60;11.43;;;;;;;16.66;60.04;101098.75;4983208;28;20113;-74
2023/06/21 02:10:14;;;;;;;10.00;8.85;;;;;;;16.69;59.94;101090.63;4988806;28;20033;-76
2023/06/21 02:12:41;;;;;;;12.40;10.40;;;;;;;16.63;59.86;101094.50;4975466;28;20045;-76
2023/06/21 02:15:08;;;;;;;12.65;10.52;;;;;;;16.63;59.97;101103.25;4977422;28;20037;-74
2023/06/21 02:17:34;;;;;;;16.90;12.05;;;;;;;16.59;59.86;101099.13;4997337;28;20057;-73
2023/06/21 02:19:59;;;;;;;10.15;9.15;;;;;;;16.63;59.81;101105.06;4989631;28;20086;-75
2023/06/21 02:22:25;;;;;;;13.75;10.10;;;;;;;16.60;59.91;101108.75;4993101;28;20638;-77
2023/06/21 02:24:53;;;;;;;13.38;11.95;;;;;;;16.59;59.89;101108.81;4973667;28;20137;-74
2023/06/21 02:27:18;;;;;;;16.60;11.80;;;;;;;16.61;59.99;101117.50;4981888;28;20132;-74
2023/06/21 02:29:44;;;;;;;18.17;12.77;;;;;;;16.73;60.07;101122.03;4992304;28;20057;-76
2023/06/21 02:32:09;;;;;;;14.77;12.25;;;;;;;16.67;60.08;101121.56;4981265;28;20080;-77
2023/06/21 02:34:35;;;;;;;14.90;11.45;;;;;;;16.87;59.73;101128.25;4982839;28;20447;-75
2023/06/21 02:37:02;;;;;;;15.95;12.60;;;;;;;16.88;59.81;101129.94;4989428;28;20065;-74
2023/06/21 02:39:27;;;;;;;14.00;12.10;;;;;;;16.95;59.64;101129.47;4990851;28;20128;-76
2023/06/21 02:41:54;;;;;;;12.88;11.45;;;;;;;16.91;59.57;101129.75;4972622;28;20666;-74
2023/06/21 02:44:20;;;;;;;14.07;11.38;;;;;;;16.93;59.62;101133.16;4974774;28;20030;-76
2023/06/21 02:46:45;;;;;;;15.50;11.80;;;;;;;16.94;59.62;101134.84;5004506;28;20037;-74
2023/06/21 02:49:11;;;;;;;16.33;12.30;;;;;;;16.84;59.80;101124.00;4976975;28;20337;-74
2023/06/21 02:51:36;;;;;;;17.63;13.70;;;;;;;16.82;59.58;101121.47;5004027;28;20030;-74
2023/06/21 02:54:02;;;;;;;15.02;11.60;;;;;;;16.82;59.77;101124.13;4974721;28;20046;-76
2023/06/21 02:56:30;;;;;;;13.35;10.60;;;;;;;16.82;59.91;101129.41;5008527;28;20096;-76
2023/06/21 02:58:56;;;;;;;13.88;11.35;;;;;;;16.83;59.43;101128.44;4971211;28;20042;-75
2023/06/21 03:01:22;;;;;;;17.38;13.77;;;;;;;16.79;59.77;101134.84;5010477;28;20096;-74
2023/06/21 03:03:47;;;;;;;22.35;15.88;;;;;;;16.64;60.14;101135.78;4985179;28;20067;-74
2023/06/21 03:06:13;;;;;;;17.00;13.52;;;;;;;16.69;60.17;101139.00;4992396;28;20656;-75
2023/06/21 03:08:38;;;;;;;21.58;15.68;;;;;;;16.72;60.14;101141.44;4969338;28;20135;-75
2023/06/21 03:11:08;;;;;;;19.88;14.45;;;;;;;16.70;60.13;101143.31;4993658;28;20473;-76
2023/06/21 03:13:36;;;;;;;19.42;15.55;;;;;;;16.63;60.24;101152.56;4987143;28;20045;-73
2023/06/21 03:16:03;;;;;;;22.48;17.25;;;;;;;16.26;61.49;101149.50;4952945;28;20038;-76
2023/06/21 03:18:28;;;;;;;24.42;16.17;;;;;;;16.49;61.06;101145.50;5001321;28;20058;-75
2023/06/21 03:20:54;;;;;;;21.77;15.98;;;;;;;16.58;60.86;101154.63;4991404;28;20030;-75
2023/06/21 03:23:20;;;;;;;22.70;16.88;;;;;;;16.58;60.83;101152.00;4990894;28;20164;-75
2023/06/21 03:25:45;;;;;;;23.58;18.42;;;;;;;16.67;60.77;101156.72;4990909;28;20042;-75
2023/06/21 03:28:11;;;;;;;29.38;19.42;;;;;;;16.43;61.34;101151.13;4977616;28;20044;-75
2023/06/21 03:30:38;;;;;;;30.23;19.70;;;;;;;16.61;61.10;101144.72;4988349;28;20458;-76
2023/06/21 03:33:04;;;;;;;28.92;20.38;;;;;;;16.64;61.08;101148.97;4977275;28;20034;-75
2023/06/21 03:35:31;;;;;;;28.52;19.33;;;;;;;16.83;60.85;101154.00;5003505;28;20115;-75
2023/06/21 03:37:57;;;;;;;30.23;19.10;;;;;;;16.88;60.50;101162.47;4987278;28;20072;-75
2023/06/21 03:40:31;;;;;;;33.08;20.48;;;;;;;16.59;61.62;101161.59;4987266;28;20736;-75
2023/06/21 03:42:57;;;;;;;30.85;22.38;;;;;;;16.75;61.23;101157.09;4987616;28;20080;-76
2023/06/21 03:45:23;;;;;;;29.80;20.83;;;;;;;16.93;60.86;101164.81;4977028;28;20073;-75
2023/06/21 03:47:53;;;;;;;32.22;22.05;;;;;;;16.96;60.70;101169.94;4990108;28;20050;-75
2023/06/21 03:50:18;;;;;;;35.92;22.83;;;;;;;17.07;60.68;101169.25;4977814;28;20091;-76
2023/06/21 03:52:46;;;;;;;28.85;20.83;;;;;;;17.17;60.61;101179.13;5004847;28;20093;-74
2023/06/21 03:55:11;;;;;;;36.20;23.05;;;;;;;16.92;60.89;101181.63;4978830;28;20038;-75
2023/06/21 03:57:38;;;;;;;36.45;23.77;;;;;;;16.86;61.18;101184.63;4987364;28;20127;-75
2023/06/21 04:00:09;;;;;;;34.40;23.65;;;;;;;16.87;61.51;101196.88;5006122;28;20072;-75
2023/06/21 04:02:41;;;;;;;35.78;24.23;;;;;;;16.89;61.59;101184.44;5008889;28;20099;-74
2023/06/21 04:05:09;;;;;;;41.15;27.00;;;;;;;17.24;60.54;101192.78;4976067;28;20042;-75
2023/06/21 04:07:34;;;;;;;39.58;26.42;;;;;;;17.23;60.24;101194.59;5007945;28;20038;-74
2023/06/21 04:10:00;;;;;;;38.88;26.05;;;;;;;16.63;61.66;101202.69;5010408;28;20038;-75
2023/06/21 04:12:28;;;;;;;41.90;25.77;;;;;;;16.93;60.86;101199.16;5008044;28;20503;-75
2023/06/21 04:14:55;;;;;;;33.70;24.55;;;;;;;16.83;61.14;101206.78;5009891;28;20018;-75
2023/06/21 04:17:20;;;;;;;35.28;24.40;;;;;;;16.78;61.69;101208.88;4993330;28;20100;-75
2023/06/21 04:19:46;;;;;;;38.85;25.75;;;;;;;16.66;61.92;101210.41;4995721;28;20113;-75
2023/06/21 04:22:12;;;;;;;36.63;24.23;;;;;;;16.80;61.34;101215.75;4962062;28;20050;-75
2023/06/21 04:24:37;;;;;;;35.72;24.70;;;;;;;16.98;60.61;101220.84;4988277;28;20116;-75
2023/06/21 04:27:03;;;;;;;39.88;26.98;;;;;;;16.73;61.09;101232.00;4992413;28;20117;-75
2023/06/21 04:29:29;;;;;;;41.35;26.90;;;;;;;16.68;61.37;101224.38;4978000;28;20068;-75
2023/06/21 04:31:55;;;;;;;37.97;24.88;;;;;;;16.96;61.61;101230.66;4988496;28;20029;-75
2023/06/21 04:34:21;;;;;;;42.42;25.27;;;;;;;17.16;60.80;101240.84;4982364;28;20041;-74
2023/06/21 04:36:47;;;;;;;43.35;26.90;;;;;;;17.07;60.70;101244.06;5012692;28;20030;-76
2023/06/21 04:39:20;;;;;;;38.67;25.42;;;;;;;17.26;60.23;101250.81;4997701;28;20049;-76
2023/06/21 04:41:46;;;;;;;39.13;25.10;;;;;;;17.13;60.60;101251.56;4994456;28;20067;-76
2023/06/21 04:44:12;;;;;;;35.45;23.65;;;;;;;17.58;59.99;101265.53;4982856;28;20443;-75
2023/06/21 04:46:38;;;;;;;35.95;24.13;;;;;;;17.65;59.87;101263.34;4983524;28;20030;-76
2023/06/21 04:49:07;;;;;;;32.47;23.67;;;;;;;16.98;60.79;101258.66;4976909;28;20504;-76
2023/06/21 04:51:32;;;;;;;34.60;23.52;;;;;;;16.89;60.54;101255.72;4980668;28;20784;-75
2023/06/21 04:54:01;;;;;;;33.00;23.10;;;;;;;17.19;60.71;101253.84;4977267;28;20034;-76
2023/06/21 04:56:28;;;;;;;37.20;24.83;;;;;;;17.33;59.96;101257.41;4977718;28;20121;-76
2023/06/21 04:58:54;;;;;;;36.63;24.10;;;;;;;17.38;59.95;101253.56;4991581;28;20799;-76
2023/06/21 05:01:20;;;;;;;31.15;22.15;;;;;;;17.47;60.00;101252.13;4976562;28;20029;-75
2023/06/21 05:03:48;;;;;;;37.72;24.63;;;;;;;17.53;59.58;101254.38;4977923;28;20092;-75
2023/06/21 05:06:14;;;;;;;36.63;22.50;;;;;;;17.79;58.95;101244.78;5010299;28;20044;-76
2023/06/21 05:08:41;;;;;;;36.03;23.48;;;;;;;17.64;58.23;101243.13;5006779;28;20034;-77
2023/06/21 05:11:06;;;;;;;35.83;22.80;;;;;;;18.09;58.52;101248.16;4976909;28;20033;-75
2023/06/21 05:13:34;;;;;;;29.98;22.60;;;;;;;18.97;55.39;101240.50;5007476;28;20050;-77
2023/06/21 05:16:00;;;;;;;33.90;24.35;;;;;;;19.04;54.08;101249.72;4994989;28;20076;-75
2023/06/21 05:18:25;;;;;;;35.75;22.75;;;;;;;18.91;54.63;101243.56;5007403;28;20049;-76
2023/06/21 05:20:51;;;;;;;34.70;22.67;;;;;;;19.56;53.06;101251.31;4987770;28;20041;-75
2023/06/21 05:23:16;;;;;;;29.92;21.95;;;;;;;19.92;52.20;101245.09;4977225;28;20597;-76
2023/06/21 05:25:42;;;;;;;30.00;21.27;;;;;;;19.48;52.56;101246.56;4992633;28;20036;-74
2023/06/21 05:28:07;;;;;;;31.33;21.52;;;;;;;19.63;52.94;101249.91;4991383;28;20038;-75
2023/06/21 05:30:33;;;;;;;29.80;21.20;;;;;;;20.06;51.51;101252.06;4991623;28;20037;-74
2023/06/21 05:32:59;;;;;;;28.45;20.77;;;;;;;20.50;50.01;101260.31;4988624;28;20041;-75
2023/06/21 05:35:24;;;;;;;28.88;21.17;;;;;;;20.56;49.64;101253.69;4980408;28;20034;-77
2023/06/21 05:37:52;;;;;;;29.95;20.73;;;;;;;19.53;52.33;101251.50;4993142;28;20042;-76
2023/06/21 05:40:19;;;;;;;30.13;20.08;;;;;;;19.22;53.16;101253.72;4979202;28;20711;-76
2023/06/21 05:42:44;;;;;;;29.52;20.83;;;;;;;19.91;51.05;101258.50;5004288;28;20073;-76
2023/06/21 05:45:10;;;;;;;26.30;19.35;;;;;;;20.42;51.42;101260.91;4989537;28;20121;-76
2023/06/21 05:47:36;;;;;;;33.17;20.08;;;;;;;19.84;50.86;101266.06;4974712;28;20046;-76
2023/06/21 05:50:02;;;;;;;28.58;19.10;;;;;;;19.84;51.39;101263.41;4993118;28;20059;-76
2023/06/21 05:52:29;;;;;;;29.30;19.45;;;;;;;19.47;52.44;101271.34;4990524;28;20060;-75
2023/06/21 05:54:54;;;;;;;37.53;19.67;;;;;;;18.50;53.69;101271.91;4974253;28;20177;-76
2023/06/21 05:57:20;;;;;;;31.27;20.00;;;;;;;18.32;54.88;101278.41;4976731;28;20045;-76
2023/06/21 05:59:46;;;;;;;32.08;19.67;;;;;;;18.42;54.73;101279.50;4957912;28;20773;-77
2023/06/21 06:02:11;;;;;;;29.67;21.27;;;;;;;18.46;54.21;101276.56;4976936;28;20157;-77
2023/06/21 06:04:37;;;;;;;28.20;20.17;;;;;;;17.67;56.12;101287.03;4986915;28;20041;-77
2023/06/21 06:07:03;;;;;;;32.00;20.17;;;;;;;17.71;56.70;101288.53;4977266;28;20065;-77
2023/06/21 06:09:30;;;;;;;30.50;20.48;;;;;;;18.03;55.87;101289.13;4991656;28;20060;-76
2023/06/21 06:11:56;;;;;;;34.88;21.10;;;;;;;19.82;52.48;101301.63;4989600;28;20056;-76
2023/06/21 06:14:25;;;;;;;28.45;20.20;;;;;;;20.41;49.49;101311.44;5006046;28;20084;-77
2023/06/21 06:16:51;;;;;;;29.05;18.83;;;;;;;20.55;48.94;101313.91;4979698;28;20029;-76
2023/06/21 06:19:17;;;;;;;30.02;19.60;;;;;;;19.85;50.01;101314.66;5004153;28;20045;-76
2023/06/21 06:21:42;;;;;;;30.25;19.33;;;;;;;20.26;49.16;101335.53;4985919;28;20042;-76
2023/06/21 06:24:08;;;;;;;27.73;17.63;;;;;;;20.82;48.52;101324.25;4987726;28;20038;-77
2023/06/21 06:26:33;;;;;;;23.55;17.95;;;;;;;21.56;47.24;101315.88;4987581;28;20112;-76
2023/06/21 06:28:59;;;;;;;25.50;17.42;;;;;;;22.03;46.39;101313.84;5007384;28;20079;-77
2023/06/21 06:31:26;;;;;;;22.48;17.50;;;;;;;22.48;44.65;101319.00;4974319;28;20040;-77
2023/06/21 06:33:52;;;;;;;30.00;18.25;;;;;;;23.29;41.58;101319.25;4986403;28;20096;-77
2023/06/21 06:36:19;;;;;;;23.63;15.75;;;;;;;23.85;41.93;101325.03;4989126;28;20140;-77
2023/06/21 06:38:48;;;;;;;23.40;17.38;;;;;;;23.82;42.82;101324.31;4974286;28;20046;-76
2023/06/21 06:41:15;;;;;;;22.88;17.48;;;;;;;22.87;42.19;101324.59;4981203;28;20124;-77
2023/06/21 06:43:40;;;;;;;22.85;16.65;;;;;;;21.53;45.52;101332.06;4957905;28;20038;-78
2023/06/21 06:46:06;;;;;;;25.42;17.25;;;;;;;20.69;46.91;101332.31;4978980;28;20038;-77
2023/06/21 06:48:31;;;;;;;23.10;16.50;;;;;;;20.38;48.61;101340.91;4982032;28;20416;-75
2023/06/21 06:50:57;;;;;;;22.70;17.80;;;;;;;21.13;47.19;101356.44;4974753;28;20509;-75
2023/06/21 06:53:23;;;;;;;27.75;17.35;;;;;;;21.61;45.56;101355.41;4975831;28;20104;-76
2023/06/21 06:55:54;;;;;;;22.73;16.17;;;;;;;21.18;45.82;101361.41;4952832;28;20481;-76
2023/06/21 06:58:21;;;;;;;26.38;16.52;;;;;;;20.54;48.44;101362.66;4983735;28;21022;-78
2023/06/21 07:00:47;;;;;;;26.25;16.67;;;;;;;20.29;48.36;101358.34;4991768;28;20048;-75
2023/06/21 07:03:13;;;;;;;22.90;16.08;;;;;;;20.50;48.45;101359.38;5005751;28;20084;-76
2023/06/21 07:05:46;;;;;;;24.83;14.63;;;;;;;22.87;42.33;101356.59;4977618;28;20115;-76
2023/06/21 07:08:12;;;;;;;20.05;14.57;;;;;;;24.64;40.28;101360.53;5005232;28;20045;-77
2023/06/21 07:10:39;;;;;;;17.30;12.90;;;;;;;23.58;39.95;101361.19;4957870;28;20037;-76
2023/06/21 07:13:05;;;;;;;21.90;14.68;;;;;;;25.17;38.96;101379.72;4986693;28;20045;-78
2023/06/21 07:15:30;;;;;;;19.98;14.02;;;;;;;25.92;35.38;101377.00;4992201;28;20041;-76
2023/06/21 07:17:56;;;;;;;17.52;12.48;;;;;;;26.75;34.62;101383.03;4996281;28;20042;-76
2023/06/21 07:20:22;;;;;;;17.25;13.35;;;;;;;24.08;37.68;101382.56;4963046;28;20698;-77
2023/06/21 07:22:48;;;;;;;19.83;13.15;;;;;;;21.19;44.29;101393.19;5002306;28;20045;-77
2023/06/21 07:25:15;;;;;;;20.52;13.32;;;;;;;19.67;47.11;101394.56;4982110;28;20041;-77
2023/06/21 07:27:41;;;;;;;18.10;12.93;;;;;;;19.34;48.82;101405.69;5002094;28;20133;-77
2023/06/21 07:30:07;;;;;;;19.50;13.20;;;;;;;20.68;45.53;101406.78;4988814;28;20029;-77
2023/06/21 07:32:35;;;;;;;19.88;13.13;;;;;;;21.12;44.59;101410.56;4973403;28;20061;-77
2023/06/21 07:35:02;;;;;;;16.02;12.15;;;;;;;21.18;43.99;101411.91;4972704;28;20508;-76
2023/06/21 07:37:28;;;;;;;17.05;12.38;;;;;;;21.22;43.52;101416.03;4972049;28;20177;-77
2023/06/21 07:39:57;;;;;;;13.73;10.18;;;;;;;22.51;41.24;101411.97;4974172;28;20041;-77
2023/06/21 07:42:23;;;;;;;13.25;8.98;;;;;;;24.50;36.98;101419.72;4980494;28;20571;-77
2023/06/21 07:44:50;;;;;;;14.15;9.93;;;;;;;25.38;34.51;101415.13;4973691;28;20034;-76
2023/06/21 07:47:16;;;;;;;12.90;8.40;;;;;;;26.02;34.15;101416.13;4969291;28;20042;-77
2023/06/21 07:49:42;;;;;;;10.55;7.85;;;;;;;26.75;32.70;101415.19;4971430;28;20116;-73
2023/06/21 07:52:09;;;;;;;12.85;8.40;;;;;;;26.03;33.98;101422.31;5004750;28;20046;-76
2023/06/21 07:54:35;;;;;;;11.85;7.82;;;;;;;25.05;33.79;101428.03;4987079;28;20065;-75
2023/06/21 07:57:00;;;;;;;16.20;9.05;;;;;;;23.34;37.28;101417.50;4975822;28;20420;-76
2023/06/21 07:59:25;;;;;;;10.77;7.97;;;;;;;23.49;37.37;101418.84;5004094;28;20100;-76
2023/06/21 08:01:51;;;;;;;11.82;7.95;;;;;;;25.08;34.54;101423.38;4974358;28;20145;-75
2023/06/21 08:04:16;;;;;;;10.27;8.25;;;;;;;22.55;38.18;101420.56;4971956;28;20062;-76
2023/06/21 08:06:42;;;;;;;13.25;7.93;;;;;;;25.39;33.54;101430.19;4976042;28;20038;-76
2023/06/21 08:09:07;;;;;;;9.88;8.00;;;;;;;25.93;32.50;101437.59;4979713;28;20044;-76
2023/06/21 08:11:32;;;;;;;7.43;6.63;;;;;;;25.46;32.64;101435.78;5002947;28;20101;-77
2023/06/21 08:13:58;;;;;;;12.00;8.00;;;;;;;23.99;35.24;101436.75;4973952;28;20072;-76
2023/06/21 08:16:24;;;;;;;9.10;7.80;;;;;;;22.59;37.69;101438.81;4988893;28;20124;-77
2023/06/21 08:18:49;;;;;;;14.15;7.75;;;;;;;21.79;40.41;101444.38;4987869;28;20049;-76
2023/06/21 08:21:15;;;;;;;12.35;7.25;;;;;;;22.79;39.26;101461.19;4987932;28;20045;-76
2023/06/21 08:23:41;;;;;;;11.95;8.23;;;;;;;23.88;36.94;101452.88;5000108;28;20030;-76
2023/06/21 08:26:06;;;;;;;10.07;8.32;;;;;;;23.44;37.35;101452.25;4978206;28;20479;-77
2023/06/21 08:28:32;;;;;;;12.30;7.85;;;;;;;23.10;38.19;101463.94;4962733;28;20038;-76
2023/06/21 08:30:57;;;;;;;9.95;6.97;;;;;;;22.95;36.73;101467.91;5004392;28;20038;-76
2023/06/21 08:33:23;;;;;;;10.68;6.05;;;;;;;24.17;34.58;101469.03;4973446;28;20034;-76
2023/06/21 08:35:48;;;;;;;8.75;5.20;;;;;;;25.86;32.44;101469.47;4993105;28;21011;-76
2023/06/21 08:38:14;;;;;;;8.00;5.78;;;;;;;26.18;31.40;101474.44;5008928;28;20042;-76
2023/06/21 08:40:42;;;;;;;8.88;7.07;;;;;;;24.13;35.00;101481.78;4977733;28;20465;-77
2023/06/21 08:43:08;;;;;;;12.18;6.18;;;;;;;23.85;35.12;101490.50;4989417;28;20069;-77
2023/06/21 08:45:33;;;;;;;7.07;5.78;;;;;;;23.90;35.60;101481.16;4995121;28;20121;-76
2023/06/21 08:48:03;;;;;;;7.95;6.05;;;;;;;24.79;34.43;101480.34;5017244;28;20026;-74
2023/06/21 08:50:30;;;;;;;9.27;5.25;;;;;;;25.57;33.57;101477.63;5021271;28;20076;-75
2023/06/21 08:52:58;;;;;;;9.93;5.80;;;;;;;25.45;33.00;101485.81;5004895;28;20045;-75
2023/06/21 08:55:27;;;;;;;9.25;6.72;;;;;;;25.28;32.75;101483.03;5002148;28;20072;-76
2023/06/21 08:57:59;;;;;;;10.75;6.07;;;;;;;26.52;31.07;101486.34;4990424;28;20038;-76
2023/06/21 09:00:59;;;;;;;6.35;4.80;;;;;;;27.50;30.00;101487.19;4976980;28;20324;-76
2023/06/21 09:03:36;;;;;;;7.18;4.50;;;;;;;27.65;29.41;101491.00;4961561;28;20518;-76
2023/06/21 09:06:10;;;;;;;11.35;5.75;;;;;;;27.33;30.06;101498.81;4992708;28;20026;-76
2023/06/21 09:08:37;;;;;;;5.68;4.22;;;;;;;26.39;30.77;101508.97;4988535;28;20041;-76
2023/06/21 09:11:05;;;;;;;8.95;5.05;;;;;;;26.22;31.78;101513.34;5009689;28;20033;-77
2023/06/21 09:13:34;;;;;;;5.50;4.28;;;;;;;25.86;31.28;101513.16;4989121;28;20281;-76
2023/06/21 09:16:02;;;;;;;4.95;3.50;;;;;;;28.29;28.53;101518.31;5007817;28;20041;-77
2023/06/21 09:18:35;;;;;;;6.18;4.40;;;;;;;28.49;28.44;101510.78;4991199;28;20111;-77
2023/06/21 09:21:02;;;;;;;3.88;3.47;;;;;;;29.14;27.25;101528.88;4995090;28;20083;-77
2023/06/21 09:23:28;;;;;;;9.32;5.65;;;;;;;26.73;30.08;101516.38;5006642;28;20128;-76
2023/06/21 09:25:54;;;;;;;6.15;5.45;;;;;;;25.19;32.72;101527.53;4983393;28;20041;-78
2023/06/21 09:28:20;;;;;;;6.50;4.00;;;;;;;25.97;32.23;101530.88;4988526;28;20042;-76
2023/06/21 09:30:45;;;;;;;6.85;4.35;;;;;;;25.98;30.84;101537.09;5011915;28;20030;-77
2023/06/21 09:33:11;;;;;;;7.82;4.03;;;;;;;24.97;32.52;101536.69;4976156;28;20050;-76
2023/06/21 09:35:38;;;;;;;6.47;3.95;;;;;;;24.82;32.17;101534.41;4977325;28;20042;-77
2023/06/21 09:38:23;;;;;;;4.38;3.47;;;;;;;26.67;30.71;101533.94;4990903;28;20037;-76
2023/06/21 09:40:49;;;;;;;2.60;2.10;;;;;;;25.27;31.69;101538.38;4998578;28;20121;-76
2023/06/21 09:43:15;;;;;;;2.10;1.30;;;;;;;26.94;30.05;101526.81;5004239;28;20045;-77
2023/06/21 09:45:41;;;;;;;2.50;1.30;;;;;;;27.27;30.45;101540.53;4988212;28;20400;-76
2023/06/21 09:48:06;;;;;;;3.10;1.42;;;;;;;27.25;29.82;101538.00;4960277;28;20088;-75
2023/06/21 09:50:36;;;;;;;2.97;1.73;;;;;;;27.47;29.06;101552.78;4987814;28;20197;-74
2023/06/21 09:53:01;;;;;;;4.05;1.58;;;;;;;26.72;30.62;101551.44;4991173;28;20116;-75
2023/06/21 09:55:27;;;;;;;1.92;1.27;;;;;;;27.17;30.01;101556.72;4975274;28;20085;-77
2023/06/21 09:57:52;;;;;;;3.47;1.73;;;;;;;26.18;29.98;101559.28;4976453;28;20065;-74
2023/06/21 10:00:18;;;;;;;3.67;1.33;;;;;;;26.69;29.05;101563.25;4979928;28;20042;-77
2023/06/21 10:02:44;;;;;;;3.35;1.25;;;;;;;26.61;30.07;101557.84;4973454;28;20169;-75
2023/06/21 10:05:17;;;;;;;4.20;1.70;;;;;;;26.25;30.68;101557.72;4980999;28;20037;-75
2023/06/21 10:07:46;;;;;;;1.98;1.25;;;;;;;26.19;30.29;101569.03;4987293;28;20046;-76
2023/06/21 10:10:12;;;;;;;3.50;2.10;;;;;;;24.61;31.68;101558.56;4982713;28;20042;-74
2023/06/21 10:12:49;;;;;;;1.30;1.00;;;;;;;24.14;31.31;101565.41;4983348;28;20038;-74
2023/06/21 10:15:15;;;;;;;1.55;0.82;;;;;;;24.46;31.92;101565.28;4972642;28;20068;-75
2023/06/21 10:17:41;;;;;;;3.08;1.52;;;;;;;24.50;31.72;101565.84;4986501;28;20038;-76
2023/06/21 10:20:09;;;;;;;1.98;1.00;;;;;;;25.11;32.52;101575.53;4994070;28;20048;-77
2023/06/21 10:22:37;;;;;;;3.03;0.93;;;;;;;25.62;30.70;101577.06;4975125;28;20053;-75
2023/06/21 10:25:04;;;;;;;2.75;0.95;;;;;;;26.31;29.85;101569.69;4990796;28;20044;-74
2023/06/21 10:27:31;;;;;;;2.72;1.35;;;;;;;26.18;30.00;101572.69;4979137;28;20744;-74
2023/06/21 10:29:58;;;;;;;2.53;1.15;;;;;;;26.63;27.80;101570.09;4989204;28;20023;-74
2023/06/21 10:32:25;;;;;;;1.80;1.27;;;;;;;26.93;29.03;101570.72;5004329;28;20200;-74
2023/06/21 10:35:16;;;;;;;2.30;1.83;;;;;;;26.70;28.24;101565.81;4974337;28;20037;-74
2023/06/21 10:38:01;;;;;;;2.67;1.17;;;;;;;27.66;28.22;101562.47;4981337;28;20424;-76
2023/06/21 10:40:28;;;;;;;2.22;1.58;;;;;;;27.19;28.99;101559.25;4978133;28;20412;-74
2023/06/21 10:42:55;;;;;;;1.83;1.50;;;;;;;26.75;29.29;101577.91;4977333;28;20049;-76
2023/06/21 10:45:21;;;;;;;3.53;1.85;;;;;;;26.72;29.08;101572.88;4968946;28;20478;-76
2023/06/21 10:47:47;;;;;;;3.90;1.73;;;;;;;25.97;30.04;101572.88;4994569;28;20465;-75
2023/06/21 10:50:14;;;;;;;3.70;1.30;;;;;;;26.32;30.22;101577.56;4983232;28;20488;-75
2023/06/21 10:52:39;;;;;;;1.73;0.95;;;;;;;26.26;28.95;101575.47;4968630;28;20044;-75
2023/06/21 10:55:06;;;;;;;1.70;0.63;;;;;;;25.97;30.09;101586.28;4991800;28;20041;-74
2023/06/21 10:57:33;;;;;;;1.60;1.13;;;;;;;26.72;30.19;101586.28;4957886;28;20062;-78
2023/06/21 11:00:05;;;;;;;2.97;1.85;;;;;;;26.30;29.28;101584.91;4974794;28;20033;-76
2023/06/21 11:02:30;;;;;;;1.77;1.23;;;;;;;26.47;29.80;101592.16;5005477;28;20878;-78
2023/06/21 11:05:15;;;;;;;1.98;1.23;;;;;;;26.24;30.23;101591.69;4976373;28;20083;-76
2023/06/21 11:08:00;;;;;;;2.38;1.67;;;;;;;25.72;31.52;101593.97;4989665;28;20051;-77
2023/06/21 11:10:49;;;;;;;2.30;1.60;;;;;;;25.17;31.56;101601.72;4988749;28;20034;-77
2023/06/21 11:13:17;;;;;;;1.73;1.23;;;;;;;26.14;30.88;101598.94;4977341;28;20809;-77
2023/06/21 11:15:46;;;;;;;4.00;1.70;;;;;;;26.62;28.72;101605.91;4986546;28;20038;-77